Badger, Canada
Current Conditions -  °F | °C
As of 4:00 AM on Wednesday 26 Nov 2014 (Local Time) from CYDF Reporting Station
Broken Clouds Broken Clouds  
Wind Chill: 34°   Ceiling: 20000
Heat Index: 41°   Visibility: 15mi
Dew Point: 32°   Wind: 12mph
Humidity: 70%   Direction: 240°WSW
Pressure: 29.69"   Gusts: 24mph
Location:  48.97°N, 56.07°W
Report Text: CYDF 260700Z 24010G21KT 15SM SCT080 BKN200 05/00 A2969 RMK AC3CI3 SLP053
Loading
Personal Weather Stations






























Interactive Weather Map New forecast layout! Learn more

10-Day Weather Forecast

Advertisements
Track Severe Weather on mobile